sensor_id;sensor_type;location;lat;lon;timestamp;pressure;altitude;pressure_sealevel;temperature;humidity
38400;BME280;24180;42.676;23.320;2023-04-19T00:02:03;94323.69;;;9.98;100.00
38400;BME280;24180;42.676;23.320;2023-04-19T00:04:28;94324.56;;;10.07;100.00
38400;BME280;24180;42.676;23.320;2023-04-19T00:06:54;94327.94;;;10.07;100.00
38400;BME280;24180;42.676;23.320;2023-04-19T00:09:19;94330.72;;;9.88;100.00
38400;BME280;24180;42.676;23.320;2023-04-19T00:11:45;94326.41;;;9.79;100.00
38400;BME280;24180;42.676;23.320;2023-04-19T00:14:10;94319.84;;;9.84;100.00
38400;BME280;24180;42.676;23.320;2023-04-19T00:16:35;94316.00;;;9.88;100.00
38400;BME280;24180;42.676;23.320;2023-04-19T00:19:01;94347.69;;;10.08;100.00
38400;BME280;24180;42.676;23.320;2023-04-19T00:21:26;94338.44;;;10.06;100.00
38400;BME280;24180;42.676;23.320;2023-04-19T00:23:52;94344.78;;;10.11;100.00
38400;BME280;24180;42.676;23.320;2023-04-19T00:26:18;94317.13;;;9.86;100.00
38400;BME280;24180;42.676;23.320;2023-04-19T00:28:44;94309.38;;;9.86;100.00
38400;BME280;24180;42.676;23.320;2023-04-19T00:31:09;94322.72;;;9.99;100.00
38400;BME280;24180;42.676;23.320;2023-04-19T00:33:35;94310.97;;;9.87;100.00
38400;BME280;24180;42.676;23.320;2023-04-19T00:36:01;94336.31;;;10.01;100.00
38400;BME280;24180;42.676;23.320;2023-04-19T00:38:26;94314.72;;;10.10;100.00
38400;BME280;24180;42.676;23.320;2023-04-19T00:40:51;94319.47;;;10.15;100.00
38400;BME280;24180;42.676;23.320;2023-04-19T00:43:17;94336.38;;;10.27;100.00
38400;BME280;24180;42.676;23.320;2023-04-19T00:45:44;94312.22;;;10.01;100.00
38400;BME280;24180;42.676;23.320;2023-04-19T00:48:10;94330.34;;;10.18;100.00
38400;BME280;24180;42.676;23.320;2023-04-19T00:50:36;94300.03;;;9.93;100.00
38400;BME280;24180;42.676;23.320;2023-04-19T00:53:03;94328.47;;;10.11;100.00
38400;BME280;24180;42.676;23.320;2023-04-19T00:55:28;94325.88;;;10.11;100.00
38400;BME280;24180;42.676;23.320;2023-04-19T00:57:54;94297.66;;;10.00;100.00
38400;BME280;24180;42.676;23.320;2023-04-19T01:00:19;94324.25;;;10.10;100.00
38400;BME280;24180;42.676;23.320;2023-04-19T01:02:45;94295.41;;;9.79;100.00
38400;BME280;24180;42.676;23.320;2023-04-19T01:05:11;94316.22;;;9.95;100.00
38400;BME280;24180;42.676;23.320;2023-04-19T01:07:36;94313.28;;;9.90;100.00
38400;BME280;24180;42.676;23.320;2023-04-19T01:10:02;94315.63;;;9.83;100.00
38400;BME280;24180;42.676;23.320;2023-04-19T01:12:28;94308.25;;;9.88;100.00
38400;BME280;24180;42.676;23.320;2023-04-19T01:14:53;94302.19;;;9.80;100.00
38400;BME280;24180;42.676;23.320;2023-04-19T01:17:19;94300.81;;;9.68;100.00
38400;BME280;24180;42.676;23.320;2023-04-19T01:19:44;94303.09;;;9.71;100.00
38400;BME280;24180;42.676;23.320;2023-04-19T01:22:20;94307.53;;;9.61;100.00
38400;BME280;24180;42.676;23.320;2023-04-19T01:24:48;94313.66;;;9.60;100.00
38400;BME280;24180;42.676;23.320;2023-04-19T01:27:14;94321.13;;;9.63;100.00
38400;BME280;24180;42.676;23.320;2023-04-19T01:29:42;94301.47;;;9.52;100.00
38400;BME280;24180;42.676;23.320;2023-04-19T01:32:07;94272.69;;;9.29;100.00
38400;BME280;24180;42.676;23.320;2023-04-19T01:34:32;94313.31;;;9.55;100.00
38400;BME280;24180;42.676;23.320;2023-04-19T01:36:58;94307.31;;;9.54;100.00
38400;BME280;24180;42.676;23.320;2023-04-19T01:39:24;94294.47;;;9.45;100.00
38400;BME280;24180;42.676;23.320;2023-04-19T01:41:50;94305.03;;;9.51;100.00
38400;BME280;24180;42.676;23.320;2023-04-19T01:44:16;94299.25;;;9.39;100.00
38400;BME280;24180;42.676;23.320;2023-04-19T01:46:41;94306.81;;;9.51;100.00
38400;BME280;24180;42.676;23.320;2023-04-19T01:49:07;94274.84;;;9.34;100.00
38400;BME280;24180;42.676;23.320;2023-04-19T01:51:33;94303.56;;;9.49;100.00
38400;BME280;24180;42.676;23.320;2023-04-19T01:53:58;94250.25;;;9.12;100.00
38400;BME280;24180;42.676;23.320;2023-04-19T01:56:23;94301.19;;;9.37;100.00
38400;BME280;24180;42.676;23.320;2023-04-19T01:58:49;94302.44;;;9.33;100.00
38400;BME280;24180;42.676;23.320;2023-04-19T02:01:15;94269.53;;;9.18;100.00
38400;BME280;24180;42.676;23.320;2023-04-19T02:03:40;94298.22;;;9.32;100.00
38400;BME280;24180;42.676;23.320;2023-04-19T02:06:10;94293.50;;;9.28;100.00
38400;BME280;24180;42.676;23.320;2023-04-19T02:08:37;94309.91;;;9.36;100.00
38400;BME280;24180;42.676;23.320;2023-04-19T02:11:06;94299.03;;;9.33;100.00
38400;BME280;24180;42.676;23.320;2023-04-19T02:13:32;94294.44;;;9.27;100.00
38400;BME280;24180;42.676;23.320;2023-04-19T02:15:58;94272.03;;;9.10;100.00
38400;BME280;24180;42.676;23.320;2023-04-19T02:18:25;94292.69;;;9.27;100.00
38400;BME280;24180;42.676;23.320;2023-04-19T02:20:51;94299.09;;;9.23;100.00
38400;BME280;24180;42.676;23.320;2023-04-19T02:23:16;94290.75;;;9.12;100.00
38400;BME280;24180;42.676;23.320;2023-04-19T02:25:41;94283.44;;;9.07;100.00
38400;BME280;24180;42.676;23.320;2023-04-19T02:28:07;94261.75;;;9.00;100.00
38400;BME280;24180;42.676;23.320;2023-04-19T02:30:32;94254.38;;;9.05;100.00
38400;BME280;24180;42.676;23.320;2023-04-19T02:32:58;94251.63;;;9.07;100.00
38400;BME280;24180;42.676;23.320;2023-04-19T02:35:23;94246.56;;;8.97;100.00
38400;BME280;24180;42.676;23.320;2023-04-19T02:37:48;94279.03;;;9.17;100.00
38400;BME280;24180;42.676;23.320;2023-04-19T02:40:14;94277.47;;;9.07;100.00
38400;BME280;24180;42.676;23.320;2023-04-19T02:42:40;94266.72;;;8.84;100.00
38400;BME280;24180;42.676;23.320;2023-04-19T02:45:06;94274.56;;;8.92;100.00
38400;BME280;24180;42.676;23.320;2023-04-19T02:47:31;94251.97;;;8.76;100.00
38400;BME280;24180;42.676;23.320;2023-04-19T02:49:57;94259.28;;;8.81;100.00
38400;BME280;24180;42.676;23.320;2023-04-19T02:52:22;94275.16;;;8.86;100.00
38400;BME280;24180;42.676;23.320;2023-04-19T02:54:47;94286.91;;;8.98;100.00
38400;BME280;24180;42.676;23.320;2023-04-19T02:57:13;94283.94;;;8.93;100.00
38400;BME280;24180;42.676;23.320;2023-04-19T02:59:38;94286.53;;;8.93;100.00
38400;BME280;24180;42.676;23.320;2023-04-19T03:02:03;94277.16;;;8.92;100.00
38400;BME280;24180;42.676;23.320;2023-04-19T03:04:29;94276.75;;;8.87;100.00
38400;BME280;24180;42.676;23.320;2023-04-19T03:06:55;94275.44;;;8.83;100.00
38400;BME280;24180;42.676;23.320;2023-04-19T03:09:20;94280.59;;;8.83;100.00
38400;BME280;24180;42.676;23.320;2023-04-19T03:11:46;94282.69;;;8.97;100.00
38400;BME280;24180;42.676;23.320;2023-04-19T03:14:11;94281.41;;;8.83;100.00
38400;BME280;24180;42.676;23.320;2023-04-19T03:16:37;94283.00;;;8.94;100.00
38400;BME280;24180;42.676;23.320;2023-04-19T03:19:02;94281.22;;;8.95;100.00
38400;BME280;24180;42.676;23.320;2023-04-19T03:21:27;94271.25;;;8.82;100.00
38400;BME280;24180;42.676;23.320;2023-04-19T03:23:56;94267.97;;;8.80;100.00
38400;BME280;24180;42.676;23.320;2023-04-19T03:26:21;94253.00;;;8.66;100.00
38400;BME280;24180;42.676;23.320;2023-04-19T03:28:47;94246.75;;;8.59;100.00
38400;BME280;24180;42.676;23.320;2023-04-19T03:31:13;94248.34;;;8.69;100.00
38400;BME280;24180;42.676;23.320;2023-04-19T03:33:38;94277.78;;;8.76;100.00
38400;BME280;24180;42.676;23.320;2023-04-19T03:36:04;94244.09;;;8.51;100.00
38400;BME280;24180;42.676;23.320;2023-04-19T03:38:29;94255.50;;;8.48;100.00
38400;BME280;24180;42.676;23.320;2023-04-19T03:40:55;94251.72;;;8.42;100.00
38400;BME280;24180;42.676;23.320;2023-04-19T03:43:22;94247.44;;;8.33;100.00
38400;BME280;24180;42.676;23.320;2023-04-19T03:45:48;94261.69;;;8.37;100.00
38400;BME280;24180;42.676;23.320;2023-04-19T03:48:14;94263.13;;;8.50;100.00
38400;BME280;24180;42.676;23.320;2023-04-19T03:50:39;94243.91;;;8.34;100.00
38400;BME280;24180;42.676;23.320;2023-04-19T03:53:05;94284.00;;;8.56;100.00
38400;BME280;24180;42.676;23.320;2023-04-19T03:55:30;94264.06;;;8.49;100.00
38400;BME280;24180;42.676;23.320;2023-04-19T03:57:56;94246.44;;;8.44;100.00
38400;BME280;24180;42.676;23.320;2023-04-19T04:00:22;94268.38;;;8.58;100.00
38400;BME280;24180;42.676;23.320;2023-04-19T04:02:47;94270.97;;;8.58;100.00
38400;BME280;24180;42.676;23.320;2023-04-19T04:05:12;94270.97;;;8.58;100.00
38400;BME280;24180;42.676;23.320;2023-04-19T04:07:38;94269.03;;;8.60;100.00
38400;BME280;24180;42.676;23.320;2023-04-19T04:10:04;94221.66;;;8.33;100.00
38400;BME280;24180;42.676;23.320;2023-04-19T04:12:29;94274.25;;;8.77;100.00
38400;BME280;24180;42.676;23.320;2023-04-19T04:14:54;94276.31;;;8.74;100.00
38400;BME280;24180;42.676;23.320;2023-04-19T04:17:20;94248.97;;;8.54;100.00
38400;BME280;24180;42.676;23.320;2023-04-19T04:19:46;94282.97;;;8.67;100.00
38400;BME280;24180;42.676;23.320;2023-04-19T04:22:11;94281.28;;;8.58;100.00
38400;BME280;24180;42.676;23.320;2023-04-19T04:24:38;94275.31;;;8.57;100.00
38400;BME280;24180;42.676;23.320;2023-04-19T04:27:06;94279.66;;;8.57;100.00
38400;BME280;24180;42.676;23.320;2023-04-19T04:29:37;94280.22;;;8.51;100.00
38400;BME280;24180;42.676;23.320;2023-04-19T04:32:04;94290.00;;;8.47;100.00
38400;BME280;24180;42.676;23.320;2023-04-19T04:34:30;94273.75;;;8.37;100.00
38400;BME280;24180;42.676;23.320;2023-04-19T04:36:57;94279.75;;;8.37;100.00
38400;BME280;24180;42.676;23.320;2023-04-19T04:39:22;94299.25;;;8.50;100.00
38400;BME280;24180;42.676;23.320;2023-04-19T04:41:48;94302.47;;;8.52;100.00
38400;BME280;24180;42.676;23.320;2023-04-19T04:44:13;94286.66;;;8.37;100.00
38400;BME280;24180;42.676;23.320;2023-04-19T04:46:39;94295.84;;;8.49;100.00
38400;BME280;24180;42.676;23.320;2023-04-19T04:49:04;94266.03;;;8.37;100.00
38400;BME280;24180;42.676;23.320;2023-04-19T04:51:30;94295.94;;;8.57;100.00
38400;BME280;24180;42.676;23.320;2023-04-19T04:53:56;94260.19;;;8.35;100.00
38400;BME280;24180;42.676;23.320;2023-04-19T04:56:22;94287.94;;;8.51;100.00
38400;BME280;24180;42.676;23.320;2023-04-19T04:58:48;94296.25;;;8.54;100.00
38400;BME280;24180;42.676;23.320;2023-04-19T05:01:13;94262.91;;;8.33;100.00
38400;BME280;24180;42.676;23.320;2023-04-19T05:03:38;94254.66;;;8.30;100.00
38400;BME280;24180;42.676;23.320;2023-04-19T05:06:04;94288.09;;;8.49;100.00
38400;BME280;24180;42.676;23.320;2023-04-19T05:08:29;94301.00;;;8.49;100.00
38400;BME280;24180;42.676;23.320;2023-04-19T05:10:55;94268.91;;;8.34;100.00
38400;BME280;24180;42.676;23.320;2023-04-19T05:13:20;94282.78;;;8.51;100.00
38400;BME280;24180;42.676;23.320;2023-04-19T05:15:46;94293.31;;;8.67;100.00
38400;BME280;24180;42.676;23.320;2023-04-19T05:18:11;94286.81;;;8.63;100.00
38400;BME280;24180;42.676;23.320;2023-04-19T05:20:37;94294.94;;;8.68;100.00
38400;BME280;24180;42.676;23.320;2023-04-19T05:23:03;94244.72;;;8.25;100.00
38400;BME280;24180;42.676;23.320;2023-04-19T05:25:28;94273.69;;;8.46;100.00
38400;BME280;24180;42.676;23.320;2023-04-19T05:27:54;94282.22;;;8.57;100.00
38400;BME280;24180;42.676;23.320;2023-04-19T05:30:19;94308.91;;;8.75;100.00
38400;BME280;24180;42.676;23.320;2023-04-19T05:32:45;94314.06;;;8.75;100.00
38400;BME280;24180;42.676;23.320;2023-04-19T05:35:11;94299.53;;;8.74;100.00
38400;BME280;24180;42.676;23.320;2023-04-19T05:37:37;94279.06;;;8.63;100.00
38400;BME280;24180;42.676;23.320;2023-04-19T05:40:03;94304.53;;;8.75;100.00
38400;BME280;24180;42.676;23.320;2023-04-19T05:42:34;94281.94;;;8.60;100.00
38400;BME280;24180;42.676;23.320;2023-04-19T05:45:00;94317.31;;;8.77;100.00
38400;BME280;24180;42.676;23.320;2023-04-19T05:47:25;94275.81;;;8.61;100.00
38400;BME280;24180;42.676;23.320;2023-04-19T05:49:50;94291.22;;;8.80;100.00
38400;BME280;24180;42.676;23.320;2023-04-19T05:52:16;94305.00;;;8.98;100.00
38400;BME280;24180;42.676;23.320;2023-04-19T05:54:41;94315.88;;;8.92;100.00
38400;BME280;24180;42.676;23.320;2023-04-19T05:57:08;94309.28;;;8.80;100.00
38400;BME280;24180;42.676;23.320;2023-04-19T05:59:33;94298.44;;;8.76;100.00
38400;BME280;24180;42.676;23.320;2023-04-19T06:01:58;94293.06;;;8.87;100.00
38400;BME280;24180;42.676;23.320;2023-04-19T06:04:25;94292.00;;;8.90;100.00
38400;BME280;24180;42.676;23.320;2023-04-19T06:06:50;94323.00;;;9.08;100.00
38400;BME280;24180;42.676;23.320;2023-04-19T06:09:16;94290.16;;;9.00;100.00
38400;BME280;24180;42.676;23.320;2023-04-19T06:11:45;94321.63;;;9.31;100.00
38400;BME280;24180;42.676;23.320;2023-04-19T06:14:11;94298.19;;;9.15;100.00
38400;BME280;24180;42.676;23.320;2023-04-19T06:16:39;94293.44;;;9.37;100.00
38400;BME280;24180;42.676;23.320;2023-04-19T06:19:05;94327.03;;;9.55;100.00
38400;BME280;24180;42.676;23.320;2023-04-19T06:21:32;94323.56;;;9.64;100.00
38400;BME280;24180;42.676;23.320;2023-04-19T06:23:58;94322.47;;;9.67;100.00
38400;BME280;24180;42.676;23.320;2023-04-19T06:26:23;94321.63;;;10.02;100.00
38400;BME280;24180;42.676;23.320;2023-04-19T06:28:48;94326.31;;;10.24;100.00
38400;BME280;24180;42.676;23.320;2023-04-19T06:31:14;94311.38;;;10.44;100.00
38400;BME280;24180;42.676;23.320;2023-04-19T06:33:39;94295.94;;;10.60;100.00
38400;BME280;24180;42.676;23.320;2023-04-19T06:36:05;94296.81;;;10.35;100.00
38400;BME280;24180;42.676;23.320;2023-04-19T06:38:31;94329.38;;;10.45;100.00
38400;BME280;24180;42.676;23.320;2023-04-19T06:40:56;94332.69;;;10.63;100.00
38400;BME280;24180;42.676;23.320;2023-04-19T06:43:22;94331.03;;;10.88;100.00
38400;BME280;24180;42.676;23.320;2023-04-19T06:45:47;94330.78;;;11.07;100.00
38400;BME280;24180;42.676;23.320;2023-04-19T06:48:12;94330.25;;;10.96;100.00
38400;BME280;24180;42.676;23.320;2023-04-19T06:50:38;94291.28;;;10.71;100.00
38400;BME280;24180;42.676;23.320;2023-04-19T06:53:03;94333.72;;;11.12;100.00
38400;BME280;24180;42.676;23.320;2023-04-19T06:55:29;94342.00;;;11.24;100.00
38400;BME280;24180;42.676;23.320;2023-04-19T06:57:54;94334.81;;;11.02;100.00
38400;BME280;24180;42.676;23.320;2023-04-19T07:00:20;94356.94;;;10.88;100.00
38400;BME280;24180;42.676;23.320;2023-04-19T07:02:46;94350.16;;;10.87;100.00
38400;BME280;24180;42.676;23.320;2023-04-19T07:05:13;94349.56;;;11.01;100.00
38400;BME280;24180;42.676;23.320;2023-04-19T07:07:38;94324.56;;;10.92;100.00
38400;BME280;24180;42.676;23.320;2023-04-19T07:10:07;94349.94;;;11.14;100.00
38400;BME280;24180;42.676;23.320;2023-04-19T07:12:32;94335.44;;;10.96;100.00
38400;BME280;24180;42.676;23.320;2023-04-19T07:14:57;94329.28;;;10.97;100.00
38400;BME280;24180;42.676;23.320;2023-04-19T07:17:23;94350.09;;;11.13;100.00
38400;BME280;24180;42.676;23.320;2023-04-19T07:19:48;94359.03;;;11.18;100.00
38400;BME280;24180;42.676;23.320;2023-04-19T07:22:14;94353.09;;;11.00;100.00
38400;BME280;24180;42.676;23.320;2023-04-19T07:24:40;94348.59;;;11.02;100.00
38400;BME280;24180;42.676;23.320;2023-04-19T07:27:06;94336.53;;;10.85;100.00
38400;BME280;24180;42.676;23.320;2023-04-19T07:29:35;94359.91;;;10.67;100.00
38400;BME280;24180;42.676;23.320;2023-04-19T07:32:01;94359.84;;;10.59;100.00
38400;BME280;24180;42.676;23.320;2023-04-19T07:34:27;94343.88;;;10.38;100.00
38400;BME280;24180;42.676;23.320;2023-04-19T07:36:52;94351.19;;;10.43;100.00
38400;BME280;24180;42.676;23.320;2023-04-19T07:39:18;94328.81;;;10.33;100.00
38400;BME280;24180;42.676;23.320;2023-04-19T07:41:44;94355.94;;;10.55;100.00
38400;BME280;24180;42.676;23.320;2023-04-19T07:44:09;94335.41;;;10.28;100.00
38400;BME280;24180;42.676;23.320;2023-04-19T07:46:36;94354.94;;;10.48;100.00
38400;BME280;24180;42.676;23.320;2023-04-19T07:49:01;94355.50;;;10.60;100.00
38400;BME280;24180;42.676;23.320;2023-04-19T07:51:27;94341.22;;;10.56;100.00
38400;BME280;24180;42.676;23.320;2023-04-19T07:53:53;94334.72;;;10.52;100.00
38400;BME280;24180;42.676;23.320;2023-04-19T07:56:18;94323.31;;;10.62;100.00
38400;BME280;24180;42.676;23.320;2023-04-19T07:58:44;94350.44;;;10.84;100.00
38400;BME280;24180;42.676;23.320;2023-04-19T08:01:10;94327.41;;;10.73;100.00
38400;BME280;24180;42.676;23.320;2023-04-19T08:03:35;94319.28;;;10.68;100.00
38400;BME280;24180;42.676;23.320;2023-04-19T08:06:03;94331.03;;;10.54;100.00
38400;BME280;24180;42.676;23.320;2023-04-19T08:08:30;94357.97;;;10.69;100.00
38400;BME280;24180;42.676;23.320;2023-04-19T08:10:55;94366.09;;;10.74;100.00
38400;BME280;24180;42.676;23.320;2023-04-19T08:13:21;94346.16;;;11.01;100.00
38400;BME280;24180;42.676;23.320;2023-04-19T08:15:47;94342.81;;;11.16;100.00
38400;BME280;24180;42.676;23.320;2023-04-19T08:18:13;94342.19;;;11.22;100.00
38400;BME280;24180;42.676;23.320;2023-04-19T08:20:38;94328.03;;;11.09;100.00
38400;BME280;24180;42.676;23.320;2023-04-19T08:23:07;94360.06;;;11.42;100.00
38400;BME280;24180;42.676;23.320;2023-04-19T08:25:33;94327.44;;;11.15;100.00
38400;BME280;24180;42.676;23.320;2023-04-19T08:27:58;94353.66;;;11.20;100.00
38400;BME280;24180;42.676;23.320;2023-04-19T08:30:24;94324.97;;;11.13;100.00
38400;BME280;24180;42.676;23.320;2023-04-19T08:32:49;94356.38;;;11.68;100.00
38400;BME280;24180;42.676;23.320;2023-04-19T08:35:15;94331.69;;;11.40;100.00
38400;BME280;24180;42.676;23.320;2023-04-19T08:37:41;94346.16;;;11.59;100.00
38400;BME280;24180;42.676;23.320;2023-04-19T08:40:07;94354.19;;;11.98;100.00
38400;BME280;24180;42.676;23.320;2023-04-19T08:42:33;94351.25;;;12.33;100.00
38400;BME280;24180;42.676;23.320;2023-04-19T08:45:02;94324.00;;;11.81;100.00
38400;BME280;24180;42.676;23.320;2023-04-19T08:47:31;94322.63;;;11.52;100.00
38400;BME280;24180;42.676;23.320;2023-04-19T08:49:59;94342.16;;;11.89;100.00
38400;BME280;24180;42.676;23.320;2023-04-19T08:52:26;94319.25;;;11.68;100.00
38400;BME280;24180;42.676;23.320;2023-04-19T08:54:53;94314.38;;;11.57;100.00
38400;BME280;24180;42.676;23.320;2023-04-19T08:57:19;94310.06;;;11.82;100.00
38400;BME280;24180;42.676;23.320;2023-04-19T08:59:44;94311.34;;;12.18;100.00
38400;BME280;24180;42.676;23.320;2023-04-19T09:02:13;94327.38;;;12.54;100.00
38400;BME280;24180;42.676;23.320;2023-04-19T09:04:40;94338.41;;;12.32;100.00
38400;BME280;24180;42.676;23.320;2023-04-19T09:07:05;94307.47;;;12.14;100.00
38400;BME280;24180;42.676;23.320;2023-04-19T09:09:32;94315.88;;;12.16;100.00
38400;BME280;24180;42.676;23.320;2023-04-19T09:11:58;94334.81;;;12.57;100.00
38400;BME280;24180;42.676;23.320;2023-04-19T09:14:25;94328.84;;;13.03;100.00
38400;BME280;24180;42.676;23.320;2023-04-19T09:16:51;94326.53;;;13.08;100.00
38400;BME280;24180;42.676;23.320;2023-04-19T09:19:16;94326.94;;;12.89;100.00
38400;BME280;24180;42.676;23.320;2023-04-19T09:21:42;94313.31;;;12.87;100.00
38400;BME280;24180;42.676;23.320;2023-04-19T09:24:08;94324.09;;;13.23;100.00
38400;BME280;24180;42.676;23.320;2023-04-19T09:26:34;94301.00;;;13.51;100.00
38400;BME280;24180;42.676;23.320;2023-04-19T09:29:09;94323.94;;;13.08;100.00
38400;BME280;24180;42.676;23.320;2023-04-19T09:31:36;94322.50;;;13.14;100.00
38400;BME280;24180;42.676;23.320;2023-04-19T09:34:12;94333.34;;;13.09;100.00
38400;BME280;24180;42.676;23.320;2023-04-19T09:36:39;94317.69;;;12.95;100.00
38400;BME280;24180;42.676;23.320;2023-04-19T09:39:05;94322.97;;;13.18;100.00
38400;BME280;24180;42.676;23.320;2023-04-19T09:41:30;94302.91;;;12.95;100.00
38400;BME280;24180;42.676;23.320;2023-04-19T09:44:10;94326.13;;;13.36;100.00
38400;BME280;24180;42.676;23.320;2023-04-19T09:46:37;94318.38;;;13.28;100.00
38400;BME280;24180;42.676;23.320;2023-04-19T09:49:16;94312.00;;;13.84;100.00
38400;BME280;24180;42.676;23.320;2023-04-19T09:51:47;94316.69;;;14.11;100.00
38400;BME280;24180;42.676;23.320;2023-04-19T09:54:15;94318.25;;;13.97;100.00
38400;BME280;24180;42.676;23.320;2023-04-19T09:56:41;94286.88;;;13.68;100.00
38400;BME280;24180;42.676;23.320;2023-04-19T09:59:08;94299.91;;;13.68;100.00
38400;BME280;24180;42.676;23.320;2023-04-19T10:01:42;94300.72;;;14.29;100.00
38400;BME280;24180;42.676;23.320;2023-04-19T10:04:12;94262.44;;;15.32;100.00
38400;BME280;24180;42.676;23.320;2023-04-19T10:06:39;94295.47;;;15.61;100.00
38400;BME280;24180;42.676;23.320;2023-04-19T10:09:05;94297.84;;;15.41;100.00
38400;BME280;24180;42.676;23.320;2023-04-19T10:11:33;94282.59;;;17.13;100.00
38400;BME280;24180;42.676;23.320;2023-04-19T10:14:09;94288.72;;;18.40;95.19
38400;BME280;24180;42.676;23.320;2023-04-19T10:16:35;94276.19;;;18.88;92.56
38400;BME280;24180;42.676;23.320;2023-04-19T10:19:12;94266.13;;;18.06;92.99
38400;BME280;24180;42.676;23.320;2023-04-19T10:21:40;94289.09;;;17.91;96.65
38400;BME280;24180;42.676;23.320;2023-04-19T10:24:12;94284.84;;;20.71;83.36
38400;BME280;24180;42.676;23.320;2023-04-19T10:27:07;94285.03;;;20.94;73.45
38400;BME280;24180;42.676;23.320;2023-04-19T10:32:18;94259.81;;;19.50;75.76
38400;BME280;24180;42.676;23.320;2023-04-19T10:34:45;94249.47;;;19.93;76.79
38400;BME280;24180;42.676;23.320;2023-04-19T10:37:12;94271.75;;;19.52;79.44
38400;BME280;24180;42.676;23.320;2023-04-19T10:39:42;94277.94;;;19.65;79.40
38400;BME280;24180;42.676;23.320;2023-04-19T10:42:07;94263.75;;;21.69;65.86
38400;BME280;24180;42.676;23.320;2023-04-19T10:44:33;94244.69;;;21.19;62.98
38400;BME280;24180;42.676;23.320;2023-04-19T10:46:58;94238.25;;;21.15;67.07
38400;BME280;24180;42.676;23.320;2023-04-19T10:49:26;94233.16;;;21.20;65.19
38400;BME280;24180;42.676;23.320;2023-04-19T10:51:52;94238.97;;;19.17;69.45
38400;BME280;24180;42.676;23.320;2023-04-19T10:54:28;94257.66;;;20.34;70.27
38400;BME280;24180;42.676;23.320;2023-04-19T10:59:30;94250.59;;;21.51;61.62
38400;BME280;24180;42.676;23.320;2023-04-19T11:02:04;94243.59;;;21.74;60.76
38400;BME280;24180;42.676;23.320;2023-04-19T11:07:17;94229.72;;;19.84;66.30
38400;BME280;24180;42.676;23.320;2023-04-19T11:09:46;94246.56;;;20.32;66.90
38400;BME280;24180;42.676;23.320;2023-04-19T11:12:13;94246.13;;;20.60;62.11
38400;BME280;24180;42.676;23.320;2023-04-19T11:14:46;94245.56;;;21.31;59.01
38400;BME280;24180;42.676;23.320;2023-04-19T11:17:23;94249.16;;;18.74;73.30
38400;BME280;24180;42.676;23.320;2023-04-19T11:20:01;94252.91;;;17.40;85.17
38400;BME280;24180;42.676;23.320;2023-04-19T11:25:03;94220.66;;;21.75;55.54
38400;BME280;24180;42.676;23.320;2023-04-19T11:27:28;94226.34;;;21.30;52.07
38400;BME280;24180;42.676;23.320;2023-04-19T11:30:04;94241.16;;;21.43;52.81
38400;BME280;24180;42.676;23.320;2023-04-19T11:32:30;94214.09;;;21.96;52.61
38400;BME280;24180;42.676;23.320;2023-04-19T11:34:55;94228.28;;;21.53;53.85
38400;BME280;24180;42.676;23.320;2023-04-19T11:37:21;94223.25;;;22.34;51.34
38400;BME280;24180;42.676;23.320;2023-04-19T11:39:47;94214.81;;;23.07;49.76
38400;BME280;24180;42.676;23.320;2023-04-19T11:42:19;94223.41;;;24.11;45.30
38400;BME280;24180;42.676;23.320;2023-04-19T11:44:48;94224.72;;;23.80;44.26
38400;BME280;24180;42.676;23.320;2023-04-19T11:47:14;94193.09;;;24.68;41.38
38400;BME280;24180;42.676;23.320;2023-04-19T11:49:40;94213.41;;;24.46;41.69
38400;BME280;24180;42.676;23.320;2023-04-19T11:52:05;94188.47;;;24.59;42.41
38400;BME280;24180;42.676;23.320;2023-04-19T11:54:32;94198.34;;;24.30;41.41
38400;BME280;24180;42.676;23.320;2023-04-19T11:56:59;94191.63;;;23.09;42.90
38400;BME280;24180;42.676;23.320;2023-04-19T11:59:25;94182.38;;;22.60;45.34
38400;BME280;24180;42.676;23.320;2023-04-19T12:01:51;94219.19;;;22.09;45.38
38400;BME280;24180;42.676;23.320;2023-04-19T12:04:16;94218.88;;;21.09;50.84
38400;BME280;24180;42.676;23.320;2023-04-19T12:06:42;94185.56;;;21.92;44.96
38400;BME280;24180;42.676;23.320;2023-04-19T12:09:07;94197.28;;;20.21;49.60
38400;BME280;24180;42.676;23.320;2023-04-19T12:11:44;94173.13;;;20.74;49.84
38400;BME280;24180;42.676;23.320;2023-04-19T12:14:17;94192.03;;;22.20;46.67
38400;BME280;24180;42.676;23.320;2023-04-19T12:16:45;94174.31;;;21.85;48.01
38400;BME280;24180;42.676;23.320;2023-04-19T12:19:27;94163.91;;;20.65;49.96
38400;BME280;24180;42.676;23.320;2023-04-19T12:21:52;94173.25;;;18.92;56.12
38400;BME280;24180;42.676;23.320;2023-04-19T12:24:17;94135.75;;;17.82;59.38
38400;BME280;24180;42.676;23.320;2023-04-19T12:26:55;94170.63;;;17.75;67.98
38400;BME280;24180;42.676;23.320;2023-04-19T12:29:21;94204.66;;;17.75;69.00
38400;BME280;24180;42.676;23.320;2023-04-19T12:31:47;94202.66;;;17.04;70.69
38400;BME280;24180;42.676;23.320;2023-04-19T12:34:12;94204.69;;;17.08;77.63
38400;BME280;24180;42.676;23.320;2023-04-19T12:36:37;94168.09;;;16.26;81.65
38400;BME280;24180;42.676;23.320;2023-04-19T12:39:03;94191.88;;;16.38;89.04
38400;BME280;24180;42.676;23.320;2023-04-19T12:41:28;94171.13;;;16.02;95.52
38400;BME280;24180;42.676;23.320;2023-04-19T12:43:54;94210.94;;;16.04;92.88
38400;BME280;24180;42.676;23.320;2023-04-19T12:46:19;94168.13;;;15.77;97.49
38400;BME280;24180;42.676;23.320;2023-04-19T12:48:45;94190.22;;;16.03;99.13
38400;BME280;24180;42.676;23.320;2023-04-19T12:51:10;94182.53;;;16.22;96.06
38400;BME280;24180;42.676;23.320;2023-04-19T12:53:36;94178.09;;;16.23;92.19